Time;durP1;ratioP1;P1;durP2;ratioP2;P2;SDS_P1;SDS_P2;PMS_P1;PMS_P2;Temp;Humidity;BMP_temperature;BMP_pressure;BME280_temperature;BME280_humidity;BME280_pressure;Samples;Min_cycle;Max_cycle;Signal;HPM_P1;HPM_P2
2021/09/11 00:01:25;;;;;;;10.40;7.00;;;;;;;19.00;100.00;100556.41;6337941;23;20006;-78
2021/09/11 00:03:56;;;;;;;9.02;6.80;;;;;;;19.00;100.00;100561.69;6336420;23;20008;-78
2021/09/11 00:06:26;;;;;;;9.43;6.20;;;;;;;18.98;100.00;100557.44;6374053;23;20040;-80
2021/09/11 00:08:56;;;;;;;12.57;7.18;;;;;;;18.98;100.00;100565.38;6373457;23;20472;-81
2021/09/11 00:11:26;;;;;;;12.50;6.90;;;;;;;18.95;100.00;100563.78;6326078;23;20015;-78
2021/09/11 00:13:57;;;;;;;9.40;6.80;;;;;;;18.94;100.00;100562.09;6300692;23;20242;-76
2021/09/11 00:16:27;;;;;;;10.02;6.25;;;;;;;18.92;100.00;100568.47;6312940;23;20010;-78
2021/09/11 00:18:57;;;;;;;9.68;6.78;;;;;;;18.90;100.00;100565.09;6312248;23;20241;-81
2021/09/11 00:21:28;;;;;;;9.05;6.20;;;;;;;18.85;100.00;100557.47;6301296;23;20062;-78
2021/09/11 00:23:58;;;;;;;7.70;6.17;;;;;;;18.83;100.00;100567.31;6314160;23;20327;-80
2021/09/11 00:26:29;;;;;;;9.32;7.18;;;;;;;18.80;100.00;100556.09;6315476;23;20237;-80
2021/09/11 00:28:59;;;;;;;10.57;7.50;;;;;;;18.78;100.00;100561.47;6314604;23;19999;-80
2021/09/11 00:31:29;;;;;;;8.05;6.25;;;;;;;18.83;100.00;100561.16;6314164;23;20040;-79
2021/09/11 00:34:01;;;;;;;9.15;6.07;;;;;;;18.82;100.00;100557.69;6310798;23;20013;-79
2021/09/11 00:36:31;;;;;;;8.45;6.07;;;;;;;18.82;100.00;100552.38;6308792;23;19999;-80
2021/09/11 00:39:01;;;;;;;8.70;6.38;;;;;;;18.84;100.00;100560.19;6302416;23;20334;-79
2021/09/11 00:41:33;;;;;;;7.47;6.07;;;;;;;18.83;100.00;100554.06;6309317;23;20010;-79
2021/09/11 00:44:04;;;;;;;8.73;6.40;;;;;;;18.80;100.00;100548.97;6308503;23;20006;-79
2021/09/11 00:46:34;;;;;;;9.20;6.13;;;;;;;18.82;100.00;100549.75;6297140;23;20009;-79
2021/09/11 00:49:05;;;;;;;8.57;6.38;;;;;;;18.76;100.00;100539.53;6296835;23;20003;-79
2021/09/11 00:51:36;;;;;;;8.32;5.50;;;;;;;18.86;100.00;100543.25;6298933;23;20010;-80
2021/09/11 00:54:06;;;;;;;7.18;5.43;;;;;;;18.82;100.00;100547.09;6307688;23;20007;-79
2021/09/11 00:56:37;;;;;;;9.45;6.00;;;;;;;18.77;100.00;100543.88;6306721;23;20318;-80
2021/09/11 00:59:08;;;;;;;7.00;5.60;;;;;;;18.78;100.00;100550.88;6306366;23;20445;-79
2021/09/11 01:01:38;;;;;;;7.63;5.80;;;;;;;18.77;100.00;100551.84;6307285;23;20002;-79
2021/09/11 01:04:08;;;;;;;9.38;5.95;;;;;;;18.78;100.00;100556.19;6309372;23;20007;-79
2021/09/11 01:06:38;;;;;;;7.03;5.73;;;;;;;18.78;100.00;100561.47;6315813;23;20189;-81
2021/09/11 01:09:09;;;;;;;6.80;5.70;;;;;;;18.75;100.00;100561.69;6301220;23;20239;-79
2021/09/11 01:11:40;;;;;;;6.85;5.75;;;;;;;18.75;100.00;100561.69;6313873;23;20045;-79
2021/09/11 01:14:11;;;;;;;9.88;5.95;;;;;;;18.75;100.00;100561.69;6313728;23;20007;-79
2021/09/11 01:16:41;;;;;;;8.30;6.23;;;;;;;18.73;100.00;100555.66;6313937;23;20006;-79
2021/09/11 01:19:11;;;;;;;7.33;5.53;;;;;;;18.73;100.00;100553.00;6313965;23;20356;-79
2021/09/11 01:21:41;;;;;;;8.50;6.20;;;;;;;18.73;100.00;100551.31;6313214;23;20244;-81
2021/09/11 01:24:12;;;;;;;9.30;5.97;;;;;;;18.72;100.00;100554.91;6312531;23;20521;-78
2021/09/11 01:26:42;;;;;;;8.67;6.03;;;;;;;18.71;100.00;100550.56;6313815;23;20022;-79
2021/09/11 01:29:12;;;;;;;8.20;6.05;;;;;;;18.74;100.00;100545.94;6302280;23;20810;-79
2021/09/11 01:31:42;;;;;;;7.90;5.97;;;;;;;18.73;100.00;100547.72;6312958;23;20009;-79
2021/09/11 01:34:13;;;;;;;9.63;6.10;;;;;;;18.74;100.00;100553.88;6313591;23;20250;-79
2021/09/11 01:36:43;;;;;;;9.48;6.30;;;;;;;18.72;100.00;100550.44;6302774;23;20453;-78
2021/09/11 01:39:13;;;;;;;7.60;6.10;;;;;;;18.74;100.00;100560.00;6314371;23;20032;-79
2021/09/11 01:41:43;;;;;;;9.27;6.07;;;;;;;18.72;100.00;100560.22;6312104;23;20007;-79
2021/09/11 01:44:14;;;;;;;6.93;5.40;;;;;;;18.70;100.00;100565.59;6311733;23;20277;-79
2021/09/11 01:46:44;;;;;;;9.80;6.47;;;;;;;18.70;100.00;100567.41;6313030;23;20489;-79
2021/09/11 01:49:14;;;;;;;7.53;6.23;;;;;;;18.69;100.00;100565.72;6301035;23;20243;-79
2021/09/11 01:51:46;;;;;;;8.57;6.37;;;;;;;18.65;100.00;100570.38;6314205;23;20226;-80
2021/09/11 01:54:16;;;;;;;7.72;6.18;;;;;;;18.66;100.00;100571.25;6313424;23;20709;-79
2021/09/11 01:56:46;;;;;;;9.27;6.30;;;;;;;18.67;100.00;100568.47;6301292;23;20030;-79
2021/09/11 01:59:16;;;;;;;8.73;5.93;;;;;;;18.62;100.00;100564.44;6301830;23;20234;-78
2021/09/11 02:01:47;;;;;;;8.67;5.77;;;;;;;18.64;100.00;100571.31;6312881;23;20885;-78
2021/09/11 02:04:17;;;;;;;8.37;6.13;;;;;;;18.61;100.00;100570.69;6312427;23;20710;-79
2021/09/11 02:06:47;;;;;;;9.63;6.60;;;;;;;18.58;100.00;100565.59;6311979;23;20257;-79
2021/09/11 02:09:17;;;;;;;7.88;5.90;;;;;;;18.58;100.00;100568.25;6313284;23;20004;-79
2021/09/11 02:11:48;;;;;;;8.57;6.32;;;;;;;18.55;100.00;100569.28;6313174;23;20033;-79
2021/09/11 02:14:18;;;;;;;8.77;5.53;;;;;;;18.56;100.00;100570.16;6311944;23;20050;-80
2021/09/11 02:16:49;;;;;;;9.80;6.80;;;;;;;18.54;100.00;100572.06;6314194;23;20741;-79
2021/09/11 02:19:19;;;;;;;10.43;6.57;;;;;;;18.55;100.00;100573.75;6312798;23;20517;-79
2021/09/11 02:21:49;;;;;;;8.95;6.20;;;;;;;18.55;100.00;100579.06;6313556;23;20117;-79
2021/09/11 02:24:19;;;;;;;9.45;6.90;;;;;;;18.53;100.00;100587.09;6311903;23;20010;-79
2021/09/11 02:26:50;;;;;;;9.95;6.85;;;;;;;18.53;100.00;100588.91;6312132;23;20066;-78
2021/09/11 02:29:20;;;;;;;6.72;5.05;;;;;;;18.54;100.00;100580.00;6313846;23;20062;-80
2021/09/11 02:31:50;;;;;;;7.65;5.97;;;;;;;18.53;100.00;100592.38;6311930;23;20189;-80
2021/09/11 02:34:21;;;;;;;8.70;6.38;;;;;;;18.49;100.00;100590.91;6311725;23;20002;-79
2021/09/11 02:36:51;;;;;;;10.43;7.15;;;;;;;18.51;100.00;100588.16;6312001;23;20010;-78
2021/09/11 02:39:21;;;;;;;10.97;6.53;;;;;;;18.50;100.00;100587.31;6311438;23;20038;-79
2021/09/11 02:41:52;;;;;;;10.45;6.97;;;;;;;18.46;100.00;100585.81;6310962;23;20296;-79
2021/09/11 02:44:22;;;;;;;7.45;6.45;;;;;;;18.49;100.00;100584.78;6311788;23;20007;-79
2021/09/11 02:46:52;;;;;;;9.55;6.85;;;;;;;18.45;100.00;100588.56;6311778;23;20321;-78
2021/09/11 02:49:23;;;;;;;9.20;6.60;;;;;;;18.48;100.00;100593.66;6311038;23;20002;-79
2021/09/11 02:51:53;;;;;;;9.07;6.53;;;;;;;18.42;100.00;100599.34;6310807;23;20045;-79
2021/09/11 02:54:23;;;;;;;7.65;6.30;;;;;;;18.40;100.00;100580.09;6309859;23;20033;-78
2021/09/11 02:56:54;;;;;;;10.30;6.60;;;;;;;18.40;100.00;100580.09;6299903;23;20002;-79
2021/09/11 02:59:24;;;;;;;10.27;7.10;;;;;;;18.36;100.00;100587.38;6311116;23;20014;-79
2021/09/11 03:01:54;;;;;;;11.05;6.72;;;;;;;18.34;100.00;100586.63;6310952;23;20238;-79
2021/09/11 03:04:25;;;;;;;11.38;7.25;;;;;;;18.35;100.00;100587.50;6310856;23;20003;-79
2021/09/11 03:06:55;;;;;;;10.73;6.18;;;;;;;18.34;100.00;100591.09;6310536;23;20104;-79
2021/09/11 03:09:25;;;;;;;8.05;6.30;;;;;;;18.31;100.00;100580.72;6312470;23;20013;-78
2021/09/11 03:11:55;;;;;;;8.50;5.63;;;;;;;18.31;100.00;100593.94;6298415;23;20038;-80
2021/09/11 03:14:26;;;;;;;8.25;5.30;;;;;;;18.27;100.00;100595.06;6311818;23;20006;-79
2021/09/11 03:16:56;;;;;;;10.88;6.78;;;;;;;18.23;100.00;100582.97;6311054;23;20006;-80
2021/09/11 03:19:26;;;;;;;11.20;6.75;;;;;;;18.13;100.00;100584.53;6311530;23;20080;-81
2021/09/11 03:21:57;;;;;;;9.90;6.40;;;;;;;18.12;100.00;100589.00;6312323;23;20007;-80
2021/09/11 03:24:27;;;;;;;8.90;6.38;;;;;;;18.06;100.00;100591.19;6311139;23;20304;-79
2021/09/11 03:26:57;;;;;;;9.57;6.45;;;;;;;18.04;100.00;100583.34;6310952;23;20419;-78
2021/09/11 03:29:28;;;;;;;8.55;5.50;;;;;;;18.09;100.00;100585.69;6311734;23;20034;-79
2021/09/11 03:31:58;;;;;;;9.17;5.93;;;;;;;18.07;100.00;100590.25;6311110;23;20605;-79
2021/09/11 03:34:28;;;;;;;8.93;6.10;;;;;;;18.02;100.00;100585.25;6309892;23;20608;-79
2021/09/11 03:36:59;;;;;;;6.97;5.20;;;;;;;17.98;100.00;100588.22;6311571;23;20235;-79
2021/09/11 03:39:29;;;;;;;8.55;5.75;;;;;;;17.96;100.00;100587.44;6310541;23;20006;-79
2021/09/11 03:42:00;;;;;;;9.05;5.93;;;;;;;17.95;100.00;100588.38;6310599;23;20006;-79
2021/09/11 03:44:30;;;;;;;8.82;5.63;;;;;;;17.96;100.00;100588.31;6311235;23;20325;-79
2021/09/11 03:47:00;;;;;;;9.10;6.00;;;;;;;17.94;100.00;100576.97;6313071;23;20077;-79
2021/09/11 03:49:31;;;;;;;7.75;5.25;;;;;;;17.97;100.00;100582.06;6312064;23;20002;-79
2021/09/11 03:52:01;;;;;;;11.10;6.18;;;;;;;17.96;100.00;100585.66;6310616;23;20685;-79
2021/09/11 03:54:31;;;;;;;8.05;4.97;;;;;;;18.01;100.00;100580.06;6310537;23;20007;-79
2021/09/11 03:57:02;;;;;;;9.77;5.70;;;;;;;17.94;100.00;100586.69;6311859;23;20038;-78
2021/09/11 03:59:32;;;;;;;6.88;5.47;;;;;;;17.91;100.00;100590.41;6299278;23;20717;-79
2021/09/11 04:02:02;;;;;;;9.05;5.38;;;;;;;17.91;100.00;100581.59;6311023;23;20002;-78
2021/09/11 04:04:33;;;;;;;7.03;5.20;;;;;;;17.89;100.00;100587.00;6310105;23;20005;-79
2021/09/11 04:07:03;;;;;;;10.20;5.30;;;;;;;17.92;100.00;100585.94;6310645;23;20002;-79
2021/09/11 04:09:34;;;;;;;7.88;5.15;;;;;;;17.90;100.00;100583.44;6298512;23;20392;-79
2021/09/11 04:12:04;;;;;;;5.70;4.90;;;;;;;17.89;100.00;100591.44;6298550;23;20006;-79
2021/09/11 04:14:35;;;;;;;8.25;5.85;;;;;;;17.87;100.00;100591.56;6310842;23;20002;-79
2021/09/11 04:17:05;;;;;;;5.97;4.60;;;;;;;17.82;100.00;100603.38;6310949;23;20030;-80
2021/09/11 04:19:35;;;;;;;7.20;5.15;;;;;;;17.80;100.00;100590.25;6310877;23;20435;-79
2021/09/11 04:22:05;;;;;;;7.40;5.43;;;;;;;17.79;100.00;100595.66;6310921;23;20006;-79
2021/09/11 04:24:36;;;;;;;6.45;5.00;;;;;;;17.78;100.00;100592.16;6310426;23;20274;-79
2021/09/11 04:27:06;;;;;;;7.28;5.05;;;;;;;17.73;100.00;100588.09;6309649;23;20458;-79
2021/09/11 04:29:36;;;;;;;6.67;5.13;;;;;;;17.67;100.00;100591.97;6311056;23;19998;-79
2021/09/11 04:32:07;;;;;;;6.13;4.30;;;;;;;17.67;100.00;100591.97;6310443;23;20521;-79
2021/09/11 04:34:37;;;;;;;6.85;5.30;;;;;;;17.63;100.00;100592.28;6309271;23;19999;-79
2021/09/11 04:37:07;;;;;;;5.65;4.28;;;;;;;17.60;100.00;100595.09;6311280;23;20003;-79
2021/09/11 04:39:38;;;;;;;6.60;5.07;;;;;;;17.55;100.00;100599.84;6309809;23;20439;-79
2021/09/11 04:42:08;;;;;;;7.40;5.10;;;;;;;17.51;100.00;100603.63;6298472;23;20249;-79
2021/09/11 04:44:38;;;;;;;6.13;4.93;;;;;;;17.51;100.00;100599.19;6309763;23;20010;-79
2021/09/11 04:47:08;;;;;;;6.75;5.10;;;;;;;17.46;100.00;100603.09;6310574;23;20002;-79
2021/09/11 04:49:39;;;;;;;8.23;4.97;;;;;;;17.47;100.00;100604.78;6309386;23;20010;-79
2021/09/11 04:52:09;;;;;;;10.00;4.90;;;;;;;17.42;100.00;100597.13;6307151;23;20230;-79
2021/09/11 04:54:39;;;;;;;6.38;5.22;;;;;;;17.46;100.00;100606.56;6306680;23;20013;-79
2021/09/11 04:57:10;;;;;;;6.97;5.23;;;;;;;17.46;100.00;100609.19;6306901;23;20006;-80
2021/09/11 04:59:40;;;;;;;7.20;5.07;;;;;;;17.52;100.00;100605.34;6307266;23;20243;-79
2021/09/11 05:02:10;;;;;;;7.38;5.50;;;;;;;17.54;100.00;100606.94;6306271;23;20343;-79
2021/09/11 05:04:41;;;;;;;6.78;4.90;;;;;;;17.35;100.00;100608.19;6295423;23;20488;-79
2021/09/11 05:07:11;;;;;;;6.80;5.40;;;;;;;17.39;100.00;100614.97;6307846;23;20012;-79
2021/09/11 05:09:41;;;;;;;6.10;4.93;;;;;;;17.40;100.00;100621.94;6307072;23;20235;-78
2021/09/11 05:12:11;;;;;;;5.70;4.53;;;;;;;17.48;100.00;100617.06;6307717;23;20239;-79
2021/09/11 05:14:42;;;;;;;5.68;4.32;;;;;;;17.49;100.00;100621.38;6306115;23;20694;-79
2021/09/11 05:17:12;;;;;;;8.83;5.10;;;;;;;17.53;100.00;100628.16;6308457;23;20002;-79
2021/09/11 05:19:42;;;;;;;5.85;4.80;;;;;;;17.38;100.00;100623.84;6309713;23;20234;-79
2021/09/11 05:22:12;;;;;;;6.43;5.00;;;;;;;17.38;100.00;100622.06;6312193;23;20006;-78
2021/09/11 05:24:43;;;;;;;7.35;4.88;;;;;;;17.40;100.00;100622.81;6311697;23;20085;-80
2021/09/11 05:27:13;;;;;;;9.27;4.93;;;;;;;17.41;100.00;100624.50;6313967;23;20013;-79
2021/09/11 05:29:43;;;;;;;8.00;5.33;;;;;;;17.35;100.00;100629.31;6302131;23;20443;-80
2021/09/11 05:32:14;;;;;;;6.85;5.32;;;;;;;17.28;100.00;100628.00;6310272;23;20602;-79
2021/09/11 05:34:44;;;;;;;6.37;5.30;;;;;;;17.29;100.00;100624.41;6299047;23;20431;-80
2021/09/11 05:37:14;;;;;;;7.23;5.07;;;;;;;17.35;100.00;100619.59;6311981;23;20250;-80
2021/09/11 05:39:44;;;;;;;6.55;4.72;;;;;;;17.41;100.00;100618.34;6313519;23;20231;-80
2021/09/11 05:42:16;;;;;;;6.10;4.93;;;;;;;17.48;100.00;100620.53;6312590;23;20006;-80
2021/09/11 05:44:47;;;;;;;5.38;4.28;;;;;;;17.50;100.00;100631.84;6312212;23;20085;-80
2021/09/11 05:47:17;;;;;;;5.30;4.38;;;;;;;17.62;100.00;100630.25;6311454;23;20025;-79
2021/09/11 05:49:47;;;;;;;6.25;4.85;;;;;;;17.67;100.00;100625.50;6299207;23;20006;-81
2021/09/11 05:52:18;;;;;;;7.03;5.25;;;;;;;17.86;100.00;100628.66;6301691;23;20002;-80
2021/09/11 05:54:48;;;;;;;6.78;4.78;;;;;;;17.90;100.00;100624.88;6312087;23;20105;-79
2021/09/11 05:57:18;;;;;;;6.57;5.10;;;;;;;18.09;100.00;100623.59;6300654;23;20002;-80
2021/09/11 05:59:48;;;;;;;5.90;4.90;;;;;;;18.29;100.00;100619.63;6310679;23;20686;-79
2021/09/11 06:02:19;;;;;;;10.27;5.70;;;;;;;18.34;100.00;100626.34;6308160;23;20704;-79
2021/09/11 06:04:49;;;;;;;7.50;4.93;;;;;;;18.52;100.00;100635.69;6306844;23;20375;-79
2021/09/11 06:07:20;;;;;;;9.15;5.18;;;;;;;18.56;100.00;100645.16;6294774;23;20245;-79
2021/09/11 06:09:50;;;;;;;7.17;5.10;;;;;;;18.71;100.00;100638.78;6307757;23;20018;-79
2021/09/11 06:12:20;;;;;;;6.57;5.03;;;;;;;18.71;100.00;100644.09;6314462;23;20499;-79
2021/09/11 06:14:50;;;;;;;5.72;4.40;;;;;;;18.75;100.00;100649.06;6303418;23;20086;-79
2021/09/11 06:17:21;;;;;;;4.95;3.83;;;;;;;18.92;100.00;100646.13;6314215;23;20374;-79
2021/09/11 06:19:51;;;;;;;5.95;4.65;;;;;;;18.88;100.00;100647.31;6313699;23;20006;-79
2021/09/11 06:22:21;;;;;;;6.70;4.40;;;;;;;19.03;100.00;100646.25;6312667;23;20334;-79
2021/09/11 06:24:52;;;;;;;5.20;4.10;;;;;;;19.32;100.00;100642.47;6311555;23;20281;-78
2021/09/11 06:27:22;;;;;;;5.57;3.95;;;;;;;19.37;100.00;100650.06;6297978;23;20029;-79
2021/09/11 06:29:52;;;;;;;6.25;4.40;;;;;;;19.53;100.00;100648.03;6310188;23;20458;-79
2021/09/11 06:32:23;;;;;;;6.20;4.55;;;;;;;19.47;100.00;100649.31;6293103;23;20017;-78
2021/09/11 06:34:53;;;;;;;5.53;4.10;;;;;;;19.46;100.00;100652.09;6306635;23;20092;-79
2021/09/11 06:37:23;;;;;;;5.30;4.10;;;;;;;19.62;100.00;100644.75;6323775;23;20231;-81
2021/09/11 06:39:54;;;;;;;5.72;4.22;;;;;;;19.44;100.00;100643.41;6324783;23;20017;-78
2021/09/11 06:42:24;;;;;;;4.88;3.70;;;;;;;19.38;100.00;100647.31;6326132;23;20334;-77
2021/09/11 06:44:54;;;;;;;5.57;3.65;;;;;;;19.44;100.00;100652.19;6313611;23;20017;-80
2021/09/11 06:47:25;;;;;;;5.85;3.72;;;;;;;19.41;100.00;100647.09;6326129;23;20381;-79
2021/09/11 06:49:55;;;;;;;4.88;3.67;;;;;;;19.49;100.00;100650.06;6313951;23;19999;-79
2021/09/11 06:52:25;;;;;;;4.60;3.60;;;;;;;19.57;100.00;100654.81;6322715;23;20038;-78
2021/09/11 06:54:55;;;;;;;5.15;3.65;;;;;;;19.61;100.00;100649.19;6323685;23;20234;-79
2021/09/11 06:57:26;;;;;;;4.68;3.35;;;;;;;19.74;100.00;100639.41;6324465;23;20037;-80
2021/09/11 06:59:57;;;;;;;5.17;3.60;;;;;;;19.78;100.00;100651.47;6325033;23;19999;-78
2021/09/11 07:02:28;;;;;;;5.03;3.53;;;;;;;19.82;100.00;100644.16;6324757;23;20245;-78
2021/09/11 07:04:58;;;;;;;4.57;3.63;;;;;;;19.68;100.00;100649.59;6313803;23;20033;-81
2021/09/11 07:07:31;;;;;;;5.37;3.90;;;;;;;19.93;100.00;100650.38;6323898;23;20235;-81
2021/09/11 07:10:02;;;;;;;5.13;3.70;;;;;;;20.16;100.00;100652.22;6310988;23;20488;-78
2021/09/11 07:12:32;;;;;;;3.90;3.20;;;;;;;20.25;100.00;100654.22;6312579;23;20005;-81
2021/09/11 07:15:04;;;;;;;5.45;3.60;;;;;;;20.32;100.00;100658.09;6324486;23;20078;-80
2021/09/11 07:17:35;;;;;;;4.60;3.45;;;;;;;20.44;100.00;100657.19;6324878;23;20088;-80
2021/09/11 07:20:05;;;;;;;4.75;3.47;;;;;;;20.37;100.00;100658.63;6325570;23;20026;-79
2021/09/11 07:22:36;;;;;;;4.30;3.30;;;;;;;20.52;100.00;100669.91;6325335;23;20018;-78
2021/09/11 07:25:06;;;;;;;5.15;3.80;;;;;;;20.64;100.00;100663.66;6325351;23;20003;-78
2021/09/11 07:27:37;;;;;;;5.20;3.60;;;;;;;20.57;100.00;100673.91;6325835;23;20005;-79
2021/09/11 07:30:07;;;;;;;4.50;3.30;;;;;;;20.52;100.00;100668.09;6325951;23;20002;-79
2021/09/11 07:32:38;;;;;;;5.20;3.40;;;;;;;20.39;100.00;100669.97;6312585;23;20007;-78
2021/09/11 07:35:09;;;;;;;6.72;4.15;;;;;;;20.63;100.00;100675.25;6325219;23;20005;-80
2021/09/11 07:37:39;;;;;;;6.60;4.40;;;;;;;20.81;100.00;100677.34;6314880;23;20376;-79
2021/09/11 07:40:10;;;;;;;8.90;4.23;;;;;;;20.63;100.00;100678.75;6324687;23;20006;-78
2021/09/11 07:42:40;;;;;;;5.65;4.40;;;;;;;20.63;100.00;100678.75;6323993;23;20297;-79
2021/09/11 07:45:13;;;;;;;7.90;5.30;;;;;;;20.28;100.00;100680.53;6311675;23;20002;-78
2021/09/11 07:47:43;;;;;;;9.80;5.70;;;;;;;20.73;100.00;100683.25;6323825;23;20241;-79
2021/09/11 07:50:13;;;;;;;7.90;5.55;;;;;;;20.80;100.00;100681.84;6325353;23;20003;-78
2021/09/11 07:52:44;;;;;;;6.65;5.18;;;;;;;21.27;100.00;100687.03;6325072;23;19990;-80
2021/09/11 07:55:14;;;;;;;6.50;5.05;;;;;;;21.70;100.00;100685.41;6323960;23;20212;-80
2021/09/11 07:57:44;;;;;;;7.28;4.90;;;;;;;21.41;100.00;100693.94;6314867;23;20033;-78
2021/09/11 08:00:17;;;;;;;6.40;4.85;;;;;;;21.46;100.00;100695.28;6324648;23;20009;-77
2021/09/11 08:02:47;;;;;;;7.13;5.20;;;;;;;21.35;100.00;100697.94;6325913;23;20006;-79
2021/09/11 08:05:18;;;;;;;7.00;5.15;;;;;;;21.03;100.00;100693.41;6324937;23;20072;-79
2021/09/11 08:07:49;;;;;;;8.23;5.38;;;;;;;20.95;100.00;100699.31;6325232;23;20006;-80
2021/09/11 08:10:20;;;;;;;6.72;4.95;;;;;;;20.86;100.00;100705.31;6313756;23;20029;-79
2021/09/11 08:12:50;;;;;;;6.30;4.68;;;;;;;20.72;100.00;100699.31;6325749;23;20010;-79
2021/09/11 08:15:21;;;;;;;7.13;5.13;;;;;;;20.67;100.00;100698.81;6323640;23;19994;-80
2021/09/11 08:17:52;;;;;;;7.68;5.65;;;;;;;20.53;100.00;100704.31;6325641;23;20033;-78
2021/09/11 08:20:23;;;;;;;6.38;5.15;;;;;;;20.61;100.00;100709.06;6324242;23;20002;-77
2021/09/11 08:22:53;;;;;;;7.28;5.18;;;;;;;20.72;100.00;100708.13;6323251;23;20007;-79
2021/09/11 08:25:23;;;;;;;6.33;4.97;;;;;;;20.86;100.00;100710.63;6312070;23;20602;-77
2021/09/11 08:27:53;;;;;;;6.63;5.23;;;;;;;21.15;100.00;100703.94;6323104;23;20238;-79
2021/09/11 08:30:24;;;;;;;5.97;4.95;;;;;;;21.30;100.00;100708.09;6324182;23;20291;-77
2021/09/11 08:32:54;;;;;;;7.07;4.95;;;;;;;22.01;100.00;100705.06;6311947;23;20077;-77
2021/09/11 08:35:24;;;;;;;7.68;5.28;;;;;;;22.18;100.00;100701.91;6323077;23;20245;-77
2021/09/11 08:37:55;;;;;;;6.57;4.70;;;;;;;23.55;100.00;100700.75;6324301;23;20009;-77
2021/09/11 08:40:25;;;;;;;5.47;4.13;;;;;;;23.87;98.99;100706.84;6322702;23;20280;-80
2021/09/11 08:42:56;;;;;;;6.20;3.90;;;;;;;25.02;92.50;100698.00;6322375;23;20030;-79
2021/09/11 08:45:28;;;;;;;6.25;3.85;;;;;;;24.92;93.40;100710.53;6321764;23;20006;-78
2021/09/11 08:48:00;;;;;;;5.00;2.92;;;;;;;25.58;90.01;100707.75;6312561;23;20013;-77
2021/09/11 08:50:31;;;;;;;6.13;4.10;;;;;;;25.26;91.38;100709.09;6322291;23;20005;-76
2021/09/11 08:53:01;;;;;;;5.93;3.90;;;;;;;25.73;87.17;100705.44;6313636;23;20007;-77
2021/09/11 08:55:31;;;;;;;6.18;4.45;;;;;;;24.85;88.79;100709.41;6321365;23;20006;-78
2021/09/11 08:58:04;;;;;;;6.55;4.20;;;;;;;24.53;91.07;100721.38;6313767;23;20006;-76
2021/09/11 09:00:36;;;;;;;5.30;4.00;;;;;;;24.31;91.33;100722.44;6322286;23;20022;-77
2021/09/11 09:03:33;;;;;;;5.97;3.35;;;;;;;23.93;93.70;100733.03;6312884;23;20010;-79
2021/09/11 09:06:09;;;;;;;4.82;4.00;;;;;;;23.85;94.84;100732.84;6320606;23;20366;-77
2021/09/11 09:08:40;;;;;;;7.70;4.68;;;;;;;23.69;95.51;100728.94;6311888;23;20003;-78
2021/09/11 09:11:31;;;;;;;6.15;3.97;;;;;;;23.88;95.31;100729.88;6321855;23;20025;-77
2021/09/11 09:14:02;;;;;;;5.18;4.00;;;;;;;24.14;90.92;100724.91;6322711;23;20002;-78
2021/09/11 09:16:37;;;;;;;5.65;4.15;;;;;;;23.99;91.25;100727.13;6321980;23;20077;-77
2021/09/11 09:19:11;;;;;;;5.75;3.95;;;;;;;23.97;90.59;100721.09;6322115;23;20022;-76
2021/09/11 09:21:42;;;;;;;4.88;3.53;;;;;;;23.87;91.63;100728.19;6321900;23;20010;-77
2021/09/11 09:24:25;;;;;;;6.20;3.83;;;;;;;23.49;95.75;100728.00;6321049;23;20006;-79
2021/09/11 09:27:00;;;;;;;5.38;3.72;;;;;;;23.26;95.99;100721.13;6322384;23;20002;-77
2021/09/11 09:29:33;;;;;;;;;;;;;;;23.25;96.40;100722.13;6322824;23;20013;-79
2021/09/11 09:32:05;;;;;;;5.53;3.83;;;;;;;22.96;95.48;100733.50;6321401;23;19912;-76
2021/09/11 09:34:41;;;;;;;5.95;3.70;;;;;;;23.20;96.80;100726.97;6321906;23;20426;-78
2021/09/11 09:37:17;;;;;;;5.88;4.10;;;;;;;22.59;100.00;100718.88;6322497;23;20002;-78
2021/09/11 09:39:49;;;;;;;9.77;4.47;;;;;;;22.58;100.00;100725.19;6323391;23;20462;-78
2021/09/11 09:42:20;;;;;;;6.20;4.15;;;;;;;22.64;100.00;100723.84;6308742;23;20013;-77
2021/09/11 09:44:53;;;;;;;5.82;3.97;;;;;;;22.43;100.00;100723.78;6319862;23;20066;-78
2021/09/11 09:47:23;;;;;;;6.28;4.25;;;;;;;22.47;100.00;100714.59;6320877;23;20002;-80
2021/09/11 09:50:05;;;;;;;4.53;3.60;;;;;;;22.93;100.00;100713.28;6310254;23;20006;-77
2021/09/11 09:52:37;;;;;;;6.78;4.28;;;;;;;23.34;98.47;100705.28;6319640;23;20038;-78
2021/09/11 09:55:09;;;;;;;6.57;4.80;;;;;;;24.18;94.09;100702.31;6307011;23;20013;-76
2021/09/11 09:57:41;;;;;;;5.47;4.15;;;;;;;24.38;93.27;100702.19;6306238;23;20450;-77
2021/09/11 10:00:12;;;;;;;6.18;4.03;;;;;;;24.08;93.88;100699.59;6309732;23;20010;-76
2021/09/11 10:02:42;;;;;;;7.10;4.68;;;;;;;24.27;92.44;100691.63;6321341;23;20041;-79
2021/09/11 10:05:15;;;;;;;7.97;4.20;;;;;;;23.68;91.76;100698.72;6312080;23;20188;-77
2021/09/11 10:08:07;;;;;;;5.72;4.05;;;;;;;23.64;94.96;100702.66;6307709;23;20024;-79
2021/09/11 10:10:43;;;;;;;4.95;4.00;;;;;;;23.45;98.78;100691.88;6320057;23;20007;-75
2021/09/11 10:13:22;;;;;;;5.53;3.90;;;;;;;23.58;99.24;100699.66;6320680;23;20006;-75
2021/09/11 10:15:55;;;;;;;6.38;4.05;;;;;;;23.75;97.66;100704.38;6320126;23;20066;-76
2021/09/11 10:18:35;;;;;;;6.97;4.03;;;;;;;24.33;95.35;100693.75;6320476;23;20005;-76
2021/09/11 10:21:13;;;;;;;5.30;3.60;;;;;;;24.43;93.38;100689.28;6322002;23;19991;-79
2021/09/11 10:24:03;;;;;;;5.68;3.47;;;;;;;24.61;91.60;100689.44;6310181;23;20140;-75
2021/09/11 10:26:54;;;;;;;5.50;4.05;;;;;;;24.36;90.40;100688.13;6322178;23;20371;-76
2021/09/11 10:29:33;;;;;;;6.05;4.18;;;;;;;23.89;92.63;100698.72;6318821;23;20006;-76
2021/09/11 10:32:11;;;;;;;7.38;4.55;;;;;;;23.70;93.42;100702.09;6321563;23;20026;-74
2021/09/11 10:34:51;;;;;;;6.45;4.80;;;;;;;23.46;93.64;100698.91;6317078;23;20003;-78
2021/09/11 10:37:29;;;;;;;6.20;4.93;;;;;;;23.15;95.49;100697.19;6320370;23;19999;-76
2021/09/11 10:40:21;;;;;;;6.80;5.00;;;;;;;23.18;98.47;100704.09;6313566;23;20037;-75
2021/09/11 10:43:10;;;;;;;7.60;5.75;;;;;;;22.52;100.00;100703.53;6323118;23;20006;-78
2021/09/11 10:45:55;;;;;;;9.32;6.10;;;;;;;22.23;100.00;100702.38;6315260;23;20025;-77
2021/09/11 10:48:44;;;;;;;7.77;5.40;;;;;;;22.37;100.00;100707.41;6323178;23;20007;-78
2021/09/11 10:51:17;;;;;;;7.95;5.93;;;;;;;22.09;100.00;100702.66;6310049;23;20057;-77
2021/09/11 10:53:57;;;;;;;9.73;6.43;;;;;;;22.17;100.00;100700.22;6322103;23;20003;-76
2021/09/11 10:56:33;;;;;;;8.73;6.40;;;;;;;22.02;100.00;100704.97;6313331;23;20175;-78
2021/09/11 11:02:09;;;;;;;8.07;5.97;;;;;;;21.91;100.00;100696.16;6312729;23;20014;-77
2021/09/11 11:04:56;;;;;;;9.77;7.07;;;;;;;22.13;100.00;100690.78;6320782;23;20021;-77
2021/09/11 11:07:28;;;;;;;9.25;6.72;;;;;;;22.28;100.00;100686.88;6322248;23;20343;-78
2021/09/11 11:10:01;;;;;;;10.07;7.47;;;;;;;22.46;100.00;100680.88;6311424;23;20090;-76
2021/09/11 11:12:35;;;;;;;13.48;7.80;;;;;;;22.65;100.00;100690.88;6321550;23;20003;-76
2021/09/11 11:15:17;;;;;;;10.63;7.90;;;;;;;22.46;100.00;100690.72;6320975;23;20004;-74
2021/09/11 11:17:49;;;;;;;11.32;7.65;;;;;;;22.38;100.00;100682.47;6312282;23;20007;-77
2021/09/11 11:20:22;;;;;;;12.32;7.95;;;;;;;22.56;100.00;100681.84;6321022;23;20033;-76
2021/09/11 11:22:56;;;;;;;12.05;8.52;;;;;;;22.58;100.00;100689.72;6322649;23;20077;-76
2021/09/11 11:25:35;;;;;;;11.32;8.25;;;;;;;22.65;99.64;100682.88;6309183;23;20007;-78
2021/09/11 11:28:08;;;;;;;11.25;7.80;;;;;;;22.71;100.00;100685.88;6323118;23;20009;-77
2021/09/11 11:30:41;;;;;;;11.15;8.57;;;;;;;22.84;98.06;100682.06;6322101;23;20025;-77
2021/09/11 11:33:11;;;;;;;13.00;8.70;;;;;;;22.80;100.00;100677.97;6322498;23;20029;-76
2021/09/11 11:35:42;;;;;;;12.07;9.02;;;;;;;22.77;100.00;100675.56;6321842;23;20085;-77
2021/09/11 11:38:14;;;;;;;14.07;9.57;;;;;;;23.19;98.59;100669.25;6323594;23;20007;-78
2021/09/11 11:40:44;;;;;;;10.25;7.65;;;;;;;23.28;99.30;100676.50;6320652;23;20017;-78